Time;durP1;ratioP1;P1;durP2;ratioP2;P2;SDS_P1;SDS_P2;PMS_P1;PMS_P2;Temp;Humidity;BMP_temperature;BMP_pressure;BME280_temperature;BME280_humidity;BME280_pressure;Samples;Min_cycle;Max_cycle;Signal;HPM_P1;HPM_P2
2022/03/17 13:04:57;;;;;;;14.75;3.60;;;10.30;99.90;;;;;;5119146;27;20392;-59
2022/03/17 13:07:25;;;;;;;10.43;2.83;;;10.70;99.90;;;;;;5092558;27;20036;-59
2022/03/17 13:09:51;;;;;;;10.15;3.30;;;10.90;99.90;;;;;;5103812;28;20031;-61
2022/03/17 13:15:14;;;;;;;12.98;3.20;;;10.80;99.90;;;;;;5104484;28;20043;-58
2022/03/17 13:17:44;;;;;;;11.95;3.92;;;10.70;99.90;;;;;;5103653;27;20099;-57
2022/03/17 13:20:26;;;;;;;13.63;3.65;;;10.80;99.90;;;;;;5103961;28;20027;-57
2022/03/17 13:23:03;;;;;;;11.95;4.72;;;10.80;99.90;;;;;;5101625;28;20065;-58
2022/03/17 13:25:33;;;;;;;11.23;3.70;;;10.60;99.90;;;;;;5099077;28;20027;-58
2022/03/17 13:28:01;;;;;;;18.10;3.75;;;10.60;99.90;;;;;;5103619;28;20039;-59
2022/03/17 13:30:28;;;;;;;13.45;3.78;;;10.50;99.90;;;;;;5106416;28;20081;-59
2022/03/17 13:33:06;;;;;;;10.38;3.95;;;10.60;99.90;;;;;;5105111;28;20032;-60
2022/03/17 13:35:33;;;;;;;18.35;4.63;;;10.70;99.90;;;;;;5099401;28;20667;-59
2022/03/17 13:38:18;;;;;;;16.45;3.90;;;10.60;99.90;;;;;;5105658;28;20091;-59
2022/03/17 13:40:49;;;;;;;14.98;3.42;;;10.60;99.90;;;;;;5096563;28;20016;-59
2022/03/17 13:43:18;;;;;;;9.93;3.30;;;10.50;99.90;;;;;;5106685;28;20031;-61
2022/03/17 13:45:46;;;;;;;14.60;3.38;;;10.50;99.90;;;;;;5096855;28;20034;-59
2022/03/17 13:48:13;;;;;;;9.95;3.70;;;10.60;99.90;;;;;;5103247;28;20124;-59
2022/03/17 13:50:48;;;;;;;12.50;3.50;;;10.60;99.90;;;;;;5107002;28;20031;-60
2022/03/17 13:53:14;;;;;;;14.05;3.20;;;10.60;99.90;;;;;;5081240;22;20041;-57
2022/03/17 13:55:39;;;;;;;9.45;3.58;;;10.60;99.90;;;;;;5057760;28;20025;-58
2022/03/17 13:58:13;;;;;;;9.23;3.85;;;10.70;99.90;;;;;;5049115;28;20419;-57
2022/03/17 14:00:39;;;;;;;15.83;3.57;;;10.60;99.90;;;;;;5055216;28;20448;-58
2022/03/17 14:03:18;;;;;;;10.57;3.92;;;10.70;99.90;;;;;;5042576;28;20385;-57
2022/03/17 14:06:02;;;;;;;15.05;3.72;;;10.80;99.90;;;;;;5034880;28;20025;-57
2022/03/17 14:08:29;;;;;;;12.55;3.22;;;10.90;99.90;;;;;;5035097;28;20554;-56
2022/03/17 14:10:56;;;;;;;17.92;3.90;;;10.90;99.90;;;;;;5028405;28;20030;-57
2022/03/17 14:13:23;;;;;;;14.10;3.17;;;10.90;99.90;;;;;;5038877;28;20593;-55
2022/03/17 14:15:49;;;;;;;10.68;3.30;;;10.90;99.90;;;;;;5033054;28;20534;-59
2022/03/17 14:18:24;;;;;;;16.58;3.78;;;10.90;99.90;;;;;;5032962;28;20014;-55
2022/03/17 14:20:49;;;;;;;12.38;3.05;;;10.80;99.90;;;;;;5030646;28;20020;-56
2022/03/17 14:26:00;;;;;;;;;;;10.70;99.90;;;;;;5038389;28;20460;-56
2022/03/17 14:28:25;;;;;;;12.80;3.53;;;10.70;99.90;;;;;;5042474;28;19908;-56
2022/03/17 14:30:51;;;;;;;19.88;3.85;;;10.60;99.90;;;;;;5052523;28;20028;-57
2022/03/17 14:33:17;;;;;;;14.90;3.15;;;10.50;99.90;;;;;;5049837;28;20021;-57
2022/03/17 14:35:43;;;;;;;10.15;2.97;;;10.60;99.90;;;;;;5040644;28;20122;-56
2022/03/17 14:38:09;;;;;;;13.73;3.28;;;10.50;99.90;;;;;;5052125;28;20021;-58
2022/03/17 14:40:35;;;;;;;18.05;4.38;;;10.50;99.90;;;;;;5043840;28;20021;-58
2022/03/17 14:43:01;;;;;;;12.73;3.80;;;10.60;99.90;;;;;;5032659;28;20040;-58
2022/03/17 14:45:26;;;;;;;18.58;3.58;;;10.60;99.90;;;;;;5032893;28;20449;-57
2022/03/17 14:47:53;;;;;;;11.13;3.92;;;10.70;99.90;;;;;;5031237;28;20025;-53
2022/03/17 14:50:19;;;;;;;20.85;3.85;;;10.70;99.90;;;;;;5040692;28;20033;-58
2022/03/17 14:52:47;;;;;;;12.48;3.45;;;10.60;99.90;;;;;;5032161;28;20045;-58
2022/03/17 14:55:13;;;;;;;13.50;3.05;;;10.50;99.90;;;;;;5048086;28;20031;-56
2022/03/17 14:57:39;;;;;;;16.40;3.50;;;10.60;99.90;;;;;;5045886;28;20029;-58
2022/03/17 15:00:05;;;;;;;18.88;3.38;;;10.50;99.90;;;;;;5037167;28;20451;-58
2022/03/17 15:02:33;;;;;;;13.85;2.83;;;10.50;99.90;;;;;;5048495;28;20456;-57
2022/03/17 15:04:58;;;;;;;14.07;3.42;;;10.50;99.90;;;;;;5036415;28;20480;-57
2022/03/17 15:07:24;;;;;;;19.20;3.28;;;10.60;99.90;;;;;;5032839;28;20036;-57
2022/03/17 15:09:50;;;;;;;13.68;2.80;;;10.60;99.90;;;;;;5042481;28;20770;-58
2022/03/17 15:12:16;;;;;;;15.85;2.78;;;10.60;99.90;;;;;;5036582;28;20382;-58
2022/03/17 15:14:42;;;;;;;21.35;3.42;;;10.60;99.90;;;;;;5029475;28;20086;-58
2022/03/17 15:17:08;;;;;;;15.13;3.92;;;10.70;99.90;;;;;;5031497;28;20522;-57
2022/03/17 15:19:33;;;;;;;15.80;3.03;;;10.60;99.90;;;;;;5041157;28;20029;-57
2022/03/17 15:22:00;;;;;;;18.25;3.63;;;10.50;99.90;;;;;;5051367;28;20032;-57
2022/03/17 15:24:27;;;;;;;13.13;2.80;;;10.40;99.90;;;;;;5051115;28;20021;-57
2022/03/17 15:26:53;;;;;;;12.75;3.05;;;10.40;99.90;;;;;;5049805;28;20044;-56
2022/03/17 15:32:04;;;;;;;15.57;2.72;;;10.30;99.90;;;;;;5027400;28;20032;-58
2022/03/17 15:34:30;;;;;;;17.45;3.30;;;10.30;99.90;;;;;;5031663;28;20122;-55
2022/03/17 15:36:56;;;;;;;18.08;3.83;;;10.20;99.90;;;;;;5032324;28;20087;-57
2022/03/17 15:39:22;;;;;;;15.00;3.70;;;10.30;99.90;;;;;;5040239;28;20478;-58
2022/03/17 15:41:48;;;;;;;12.00;3.67;;;10.30;99.90;;;;;;5042473;28;20028;-58
2022/03/17 15:44:14;;;;;;;16.85;2.90;;;10.20;99.90;;;;;;5031530;28;20029;-58
2022/03/17 15:46:40;;;;;;;14.20;3.42;;;10.20;99.90;;;;;;5031639;28;20030;-57
2022/03/17 15:49:05;;;;;;;13.27;2.72;;;10.20;99.90;;;;;;5031227;28;20451;-55
2022/03/17 15:51:31;;;;;;;6.72;2.85;;;10.30;99.90;;;;;;5031816;28;20041;-57
2022/03/17 15:53:56;;;;;;;12.57;3.28;;;10.20;99.90;;;;;;5031229;28;20041;-57
2022/03/17 15:56:22;;;;;;;14.13;3.63;;;10.20;99.90;;;;;;5037786;28;20036;-55
2022/03/17 15:58:48;;;;;;;12.13;2.65;;;10.20;99.90;;;;;;5031518;28;20439;-58
2022/03/17 16:01:18;;;;;;;14.20;3.55;;;10.10;99.90;;;;;;5032022;28;20021;-56
2022/03/17 16:03:43;;;;;;;10.35;3.72;;;10.10;99.90;;;;;;5042652;28;20028;-54
2022/03/17 16:06:10;;;;;;;18.15;4.28;;;10.10;99.90;;;;;;5036413;28;20040;-56
2022/03/17 16:08:35;;;;;;;14.13;4.53;;;10.10;99.90;;;;;;5042427;28;20107;-56
2022/03/17 16:16:31;;;;;;;17.70;4.07;;;10.00;99.90;;;;;;5031079;28;20036;-54
2022/03/17 16:18:56;;;;;;;14.20;3.83;;;10.00;99.90;;;;;;5034941;28;20472;-57
2022/03/17 16:21:25;;;;;;;12.32;3.50;;;10.00;99.90;;;;;;5029282;28;20029;-55
2022/03/17 16:23:51;;;;;;;28.48;6.35;;;9.90;99.90;;;;;;5030253;28;20022;-55
2022/03/17 16:26:18;;;;;;;15.05;3.97;;;9.90;99.90;;;;;;5030768;28;20029;-58
2022/03/17 16:28:45;;;;;;;8.05;3.70;;;9.90;99.90;;;;;;5030881;28;20029;-55
2022/03/17 16:31:17;;;;;;;15.63;3.83;;;9.90;99.90;;;;;;5044662;28;20411;-58
2022/03/17 16:33:44;;;;;;;8.25;3.58;;;9.90;99.90;;;;;;5049362;28;20025;-58
2022/03/17 16:36:10;;;;;;;12.18;4.22;;;9.90;99.90;;;;;;5049831;28;20508;-56
2022/03/17 16:38:36;;;;;;;19.73;4.70;;;9.90;99.90;;;;;;5034103;28;20344;-56
2022/03/17 16:41:02;;;;;;;16.38;4.00;;;9.90;99.90;;;;;;5030929;28;20018;-54
2022/03/17 16:43:28;;;;;;;13.70;4.93;;;9.80;99.90;;;;;;5030184;28;20030;-55
2022/03/17 16:45:54;;;;;;;14.23;3.40;;;9.80;99.90;;;;;;5050217;28;20444;-53
2022/03/17 16:48:20;;;;;;;14.85;4.28;;;9.80;99.90;;;;;;5035513;28;20040;-58
2022/03/17 16:50:45;;;;;;;13.63;4.88;;;9.80;99.90;;;;;;5030487;28;20033;-57
2022/03/17 16:53:11;;;;;;;15.20;4.43;;;9.80;99.90;;;;;;5035233;28;20127;-58
2022/03/17 16:55:37;;;;;;;14.75;4.75;;;9.80;99.90;;;;;;5030709;28;20640;-58
2022/03/17 16:58:03;;;;;;;8.68;4.45;;;9.70;99.90;;;;;;5027608;28;20083;-58
2022/03/17 17:00:29;;;;;;;10.55;4.80;;;9.70;99.90;;;;;;5030642;28;20026;-56
2022/03/17 17:02:55;;;;;;;15.10;4.82;;;9.70;99.90;;;;;;5036681;28;20028;-54
2022/03/17 17:05:22;;;;;;;8.55;4.05;;;9.60;99.90;;;;;;5039823;28;20043;-55
2022/03/17 17:07:49;;;;;;;19.95;5.15;;;9.60;99.90;;;;;;5034090;28;20029;-56
2022/03/17 17:10:16;;;;;;;13.70;4.43;;;9.60;99.90;;;;;;5027390;28;20111;-55
2022/03/17 17:12:42;;;;;;;16.40;4.38;;;9.60;99.90;;;;;;5027840;28;20063;-55
2022/03/17 17:15:09;;;;;;;13.52;3.85;;;9.60;99.90;;;;;;5025031;28;20409;-56
2022/03/17 17:17:35;;;;;;;10.52;3.53;;;9.50;99.90;;;;;;5029109;28;20109;-56
2022/03/17 17:20:02;;;;;;;12.52;4.72;;;9.60;99.90;;;;;;5030457;28;20499;-58
2022/03/17 17:22:28;;;;;;;13.20;3.65;;;9.50;99.90;;;;;;5036452;28;20360;-56
2022/03/17 17:30:41;;;;;;;13.13;4.00;;;9.40;99.90;;;;;;5028815;28;20049;-54
2022/03/17 17:33:10;;;;;;;16.30;3.50;;;9.30;99.90;;;;;;5025376;28;20044;-54
2022/03/17 17:35:37;;;;;;;15.73;4.15;;;9.20;99.90;;;;;;5037927;28;20068;-56
2022/03/17 17:38:03;;;;;;;11.55;3.65;;;9.20;99.90;;;;;;5031492;28;20022;-58
2022/03/17 17:40:28;;;;;;;15.90;4.80;;;9.20;99.90;;;;;;5033997;28;20116;-57
2022/03/17 17:42:54;;;;;;;14.30;4.38;;;9.10;99.90;;;;;;5035735;28;20029;-56
2022/03/17 17:45:22;;;;;;;11.02;4.40;;;9.10;99.90;;;;;;5034878;28;20029;-57
2022/03/17 17:47:48;;;;;;;12.10;4.47;;;9.10;99.90;;;;;;5031583;28;20029;-58
2022/03/17 17:50:16;;;;;;;8.23;3.83;;;9.10;99.90;;;;;;5040186;28;20028;-59
2022/03/17 17:52:44;;;;;;;12.18;3.90;;;9.00;99.90;;;;;;5032990;28;20542;-57
2022/03/17 17:55:12;;;;;;;15.05;4.82;;;9.00;99.90;;;;;;5032469;28;20068;-57
2022/03/17 17:57:39;;;;;;;21.35;4.72;;;8.80;99.90;;;;;;5036014;28;20103;-58
2022/03/17 18:00:06;;;;;;;15.55;4.03;;;8.60;99.90;;;;;;5039825;28;20021;-57
2022/03/17 18:02:32;;;;;;;22.92;4.80;;;8.50;99.90;;;;;;5032479;28;20532;-55
2022/03/17 18:04:57;;;;;;;11.73;4.60;;;8.30;99.90;;;;;;5036294;28;20116;-56
2022/03/17 18:07:23;;;;;;;13.25;4.78;;;8.30;99.90;;;;;;5033109;28;20489;-56
2022/03/17 18:09:49;;;;;;;15.20;5.03;;;8.20;99.90;;;;;;5034862;28;20121;-58
2022/03/17 18:12:15;;;;;;;21.80;5.60;;;8.20;99.90;;;;;;5039364;28;20426;-56
2022/03/17 18:14:41;;;;;;;13.95;3.88;;;8.30;99.90;;;;;;5031669;28;20030;-57
